createdAt,value
2018-02-07T00:00:34.263Z,-0.97
2018-02-07T00:03:01.667Z,-0.95
2018-02-07T00:05:29.057Z,-0.96
2018-02-07T00:07:56.458Z,-0.91
2018-02-07T00:10:23.852Z,-1.03
2018-02-07T00:12:51.256Z,-1.17
2018-02-07T00:15:18.646Z,-1.00
2018-02-07T00:17:46.039Z,-0.96
2018-02-07T00:20:13.454Z,-0.96
2018-02-07T00:22:40.922Z,-0.82
2018-02-07T00:25:08.331Z,-0.94
2018-02-07T00:27:35.739Z,-1.06
2018-02-07T00:30:03.796Z,-1.24
2018-02-07T00:32:31.207Z,-1.17
2018-02-07T00:34:58.603Z,-1.30
2018-02-07T00:37:25.998Z,-1.37
2018-02-07T00:39:53.395Z,-1.48
2018-02-07T00:42:20.797Z,-1.67
2018-02-07T00:44:48.231Z,-1.82
2018-02-07T00:47:15.625Z,-1.90
2018-02-07T00:49:43.036Z,-1.94
2018-02-07T00:52:10.519Z,-1.83
2018-02-07T00:54:37.910Z,-1.91
2018-02-07T00:57:05.325Z,-2.14
2018-02-07T00:59:32.718Z,-2.12
2018-02-07T01:02:00.113Z,-2.11
2018-02-07T01:04:27.513Z,-2.10
2018-02-07T01:06:54.917Z,-2.21
2018-02-07T01:09:22.314Z,-2.24
2018-02-07T01:11:49.727Z,-2.33
2018-02-07T01:14:17.118Z,-2.52
2018-02-07T01:16:44.519Z,-2.61
2018-02-07T01:19:11.917Z,-2.42
2018-02-07T01:21:39.322Z,-2.61
2018-02-07T01:24:06.715Z,-2.71
2018-02-07T01:26:34.114Z,-2.79
2018-02-07T01:29:01.510Z,-2.95
2018-02-07T01:31:28.918Z,-3.02
2018-02-07T01:33:56.325Z,-3.13
2018-02-07T01:36:23.774Z,-3.15
2018-02-07T01:38:51.162Z,-2.92
2018-02-07T01:41:18.576Z,-2.89
2018-02-07T01:43:45.970Z,-2.85
2018-02-07T01:46:13.378Z,-2.81
2018-02-07T01:48:40.771Z,-2.85
2018-02-07T01:51:08.165Z,-2.98
2018-02-07T01:53:35.558Z,-3.04
2018-02-07T01:56:02.995Z,-3.13
2018-02-07T01:58:30.386Z,-2.97
2018-02-07T02:00:57.802Z,-2.94
2018-02-07T02:03:25.190Z,-2.83
2018-02-07T02:05:52.601Z,-2.84
2018-02-07T02:08:19.989Z,-2.80
2018-02-07T02:10:47.439Z,-2.83
2018-02-07T02:13:14.845Z,-2.84
2018-02-07T02:15:42.230Z,-2.81
2018-02-07T02:18:09.633Z,-2.78
2018-02-07T02:20:37.051Z,-2.77
2018-02-07T02:23:04.451Z,-2.88
2018-02-07T02:25:31.873Z,-2.84
2018-02-07T02:27:59.274Z,-2.83
2018-02-07T02:30:26.670Z,-2.82
2018-02-07T02:32:54.133Z,-2.75
2018-02-07T02:35:21.522Z,-2.77
2018-02-07T02:37:48.930Z,-2.83
2018-02-07T02:40:16.322Z,-3.04
2018-02-07T02:42:43.733Z,-3.01
2018-02-07T02:45:11.128Z,-2.79
2018-02-07T02:47:38.523Z,-2.75
2018-02-07T02:50:05.906Z,-2.76
2018-02-07T02:52:33.406Z,-2.93
2018-02-07T02:55:00.894Z,-3.28
2018-02-07T02:57:28.309Z,-3.36
2018-02-07T02:59:55.705Z,-3.31
2018-02-07T03:02:23.150Z,-3.45
2018-02-07T03:04:50.554Z,-3.49
2018-02-07T03:07:18.058Z,-3.48
2018-02-07T03:09:45.455Z,-3.45
2018-02-07T03:12:12.853Z,-3.48
2018-02-07T03:14:40.246Z,-3.42
2018-02-07T03:17:07.654Z,-3.65
2018-02-07T03:19:35.091Z,-3.62
2018-02-07T03:22:02.489Z,-3.62
2018-02-07T03:24:29.885Z,-3.77
2018-02-07T03:26:57.302Z,-3.85
2018-02-07T03:29:24.768Z,-3.71
2018-02-07T03:31:52.165Z,-3.84
2018-02-07T03:34:19.555Z,-4.00
2018-02-07T03:36:46.961Z,-3.95
2018-02-07T03:39:14.354Z,-4.04
2018-02-07T03:41:41.825Z,-4.12
2018-02-07T03:44:09.281Z,-4.14
2018-02-07T03:46:36.703Z,-4.05
2018-02-07T03:49:05.073Z,-3.97
2018-02-07T03:51:32.461Z,-4.14
2018-02-07T03:53:59.861Z,-4.18
2018-02-07T03:56:27.278Z,-4.10
2018-02-07T03:58:54.670Z,-4.21
2018-02-07T04:01:22.066Z,-4.27
2018-02-07T04:03:49.554Z,-4.15
2018-02-07T04:06:16.955Z,-4.13
2018-02-07T04:08:44.462Z,-4.34
2018-02-07T04:11:11.858Z,-4.23
2018-02-07T04:13:39.254Z,-4.07
2018-02-07T04:16:06.645Z,-3.91
2018-02-07T04:18:34.087Z,-3.79
2018-02-07T04:21:01.490Z,-3.59
2018-02-07T04:23:28.885Z,-3.53
2018-02-07T04:25:56.348Z,-3.47
2018-02-07T04:28:23.745Z,-3.49
2018-02-07T04:30:51.158Z,-3.44
2018-02-07T04:33:19.482Z,-3.68
2018-02-07T04:35:46.874Z,-3.85
2018-02-07T04:38:14.281Z,-3.68
2018-02-07T04:40:41.665Z,-3.69
2018-02-07T04:43:09.066Z,-3.77
2018-02-07T04:45:36.466Z,-3.66
2018-02-07T04:48:03.892Z,-3.58
2018-02-07T04:50:31.267Z,-3.71
2018-02-07T04:52:58.681Z,-4.16
2018-02-07T04:55:26.074Z,-4.19
2018-02-07T04:57:53.582Z,-4.22
2018-02-07T05:00:21.033Z,-4.10
2018-02-07T05:02:48.438Z,-4.20
2018-02-07T05:05:15.834Z,-4.38
2018-02-07T05:07:43.421Z,-4.24
2018-02-07T05:10:10.814Z,-4.17
2018-02-07T05:12:38.221Z,-4.19
2018-02-07T05:15:05.666Z,-3.99
2018-02-07T05:17:33.066Z,-3.81
2018-02-07T05:20:00.458Z,-3.92
2018-02-07T05:22:27.864Z,-3.78
2018-02-07T05:24:55.283Z,-3.84
2018-02-07T05:27:22.683Z,-3.93
2018-02-07T05:29:50.087Z,-4.15
2018-02-07T05:32:17.489Z,-4.26
2018-02-07T05:34:44.898Z,-4.29
2018-02-07T05:37:12.362Z,-4.41
2018-02-07T05:39:39.796Z,-4.39
2018-02-07T05:42:07.186Z,-4.40
2018-02-07T05:44:34.588Z,-4.29
2018-02-07T05:47:01.995Z,-4.19
2018-02-07T05:49:29.385Z,-4.40
2018-02-07T05:51:56.785Z,-4.60
2018-02-07T05:54:24.183Z,-4.66
2018-02-07T05:56:51.593Z,-4.54
2018-02-07T05:59:19.006Z,-4.32
2018-02-07T06:01:46.407Z,-4.33
2018-02-07T06:04:13.809Z,-4.50
2018-02-07T06:06:41.198Z,-4.57
2018-02-07T06:09:08.606Z,-4.46
2018-02-07T06:11:36.036Z,-4.25
2018-02-07T06:14:03.430Z,-4.16
2018-02-07T06:16:30.864Z,-4.16
2018-02-07T06:18:58.263Z,-4.16
2018-02-07T06:21:25.659Z,-4.16
2018-02-07T06:23:53.049Z,-4.17
2018-02-07T06:26:20.453Z,-4.21
2018-02-07T06:28:47.870Z,-4.29
2018-02-07T06:31:15.266Z,-4.19
2018-02-07T06:33:42.769Z,-4.26
2018-02-07T06:36:10.181Z,-4.55
2018-02-07T06:38:37.578Z,-4.43
2018-02-07T06:41:05.001Z,-4.51
2018-02-07T06:43:32.379Z,-4.51
2018-02-07T06:45:59.781Z,-4.33
2018-02-07T06:48:27.173Z,-4.35
2018-02-07T06:50:54.606Z,-4.43
2018-02-07T06:53:22.006Z,-4.54
2018-02-07T06:55:49.410Z,-4.26
2018-02-07T06:58:16.816Z,-4.19
2018-02-07T07:00:44.232Z,-4.08
2018-02-07T07:03:11.636Z,-4.35
2018-02-07T07:05:39.026Z,-4.38
2018-02-07T07:08:06.425Z,-4.24
2018-02-07T07:10:33.814Z,-4.12
2018-02-07T07:13:01.215Z,-4.39
2018-02-07T07:15:28.650Z,-4.37
2018-02-07T07:17:56.058Z,-4.20
2018-02-07T07:20:23.469Z,-4.04
2018-02-07T07:22:50.918Z,-4.15
2018-02-07T07:25:18.375Z,-4.44
2018-02-07T07:27:45.774Z,-4.44
2018-02-07T07:30:13.175Z,-4.44
2018-02-07T07:32:40.637Z,-4.34
2018-02-07T07:35:08.035Z,-4.00
2018-02-07T07:37:35.429Z,-4.13
2018-02-07T07:40:02.907Z,-3.94
2018-02-07T07:42:30.298Z,-4.19
2018-02-07T07:44:57.714Z,-4.17
2018-02-07T07:47:25.110Z,-4.03
2018-02-07T07:49:52.509Z,-3.98
2018-02-07T07:52:19.899Z,-4.08
2018-02-07T07:54:47.310Z,-3.64
2018-02-07T07:57:14.714Z,-2.75
2018-02-07T07:59:42.149Z,-1.57
2018-02-07T08:02:10.103Z,-0.73
2018-02-07T08:04:37.498Z,0.80
2018-02-07T08:07:04.898Z,1.74
2018-02-07T08:09:32.373Z,2.39
2018-02-07T08:11:59.780Z,2.86
2018-02-07T08:14:27.171Z,3.59
2018-02-07T08:16:54.559Z,4.20
2018-02-07T08:19:21.953Z,4.63
2018-02-07T08:21:49.350Z,5.20
2018-02-07T08:24:16.802Z,5.00
2018-02-07T08:26:44.198Z,6.23
2018-02-07T08:29:11.626Z,6.56
2018-02-07T08:31:39.014Z,6.59
2018-02-07T08:34:06.422Z,6.97
2018-02-07T08:36:33.886Z,7.10
2018-02-07T08:39:01.285Z,7.30
2018-02-07T08:41:28.678Z,6.96
2018-02-07T08:43:56.087Z,7.56
2018-02-07T08:46:23.482Z,8.24
2018-02-07T08:48:50.874Z,7.87
2018-02-07T08:51:18.274Z,7.35
2018-02-07T08:53:45.762Z,7.34
2018-02-07T08:56:13.173Z,6.79
2018-02-07T08:58:40.574Z,6.36
2018-02-07T09:01:07.972Z,6.50
2018-02-07T09:03:35.383Z,5.92
2018-02-07T09:06:02.774Z,6.71
2018-02-07T09:08:30.166Z,6.87
2018-02-07T09:10:57.669Z,6.91
2018-02-07T09:13:25.041Z,7.72
2018-02-07T09:15:52.454Z,7.73
2018-02-07T09:18:19.854Z,7.98
2018-02-07T09:20:47.777Z,8.30
2018-02-07T09:23:16.043Z,8.34
2018-02-07T09:25:43.452Z,7.83
2018-02-07T09:28:10.875Z,7.18
2018-02-07T09:30:38.330Z,7.49
2018-02-07T09:33:05.727Z,7.80
2018-02-07T09:35:33.130Z,8.28
2018-02-07T09:38:00.590Z,8.08
2018-02-07T09:40:28.056Z,7.19
2018-02-07T09:42:55.443Z,7.22
2018-02-07T09:45:22.861Z,7.85
2018-02-07T09:47:50.246Z,8.31
2018-02-07T09:50:17.677Z,8.58
2018-02-07T09:52:45.058Z,8.80
2018-02-07T09:55:12.486Z,8.69
2018-02-07T09:57:39.882Z,8.52
2018-02-07T10:00:07.274Z,8.64
2018-02-07T10:02:34.680Z,8.76
2018-02-07T10:05:02.080Z,8.11
2018-02-07T10:07:29.466Z,8.42
2018-02-07T10:09:56.862Z,7.99
2018-02-07T10:12:24.254Z,7.80
2018-02-07T10:14:51.650Z,7.97
2018-02-07T10:17:20.273Z,7.94
2018-02-07T10:19:47.643Z,7.42
2018-02-07T10:22:15.034Z,6.75
2018-02-07T10:24:43.110Z,6.58
2018-02-07T10:27:10.503Z,7.10
2018-02-07T10:29:38.239Z,6.61
2018-02-07T10:32:05.630Z,6.50
2018-02-07T10:34:33.022Z,6.49
2018-02-07T10:37:00.413Z,6.26
2018-02-07T10:39:27.830Z,6.10
2018-02-07T10:41:55.213Z,6.26
2018-02-07T10:44:22.613Z,6.17
2018-02-07T10:46:49.998Z,6.28
2018-02-07T10:49:17.398Z,6.23
2018-02-07T10:51:44.786Z,6.04
2018-02-07T10:54:12.187Z,6.70
2018-02-07T10:56:39.586Z,6.15
2018-02-07T10:59:06.975Z,6.17
2018-02-07T11:01:34.373Z,6.84
2018-02-07T11:04:01.784Z,7.14
2018-02-07T11:06:29.166Z,7.00
2018-02-07T11:08:56.566Z,7.22
2018-02-07T11:11:23.946Z,7.06
2018-02-07T11:13:51.415Z,6.85
2018-02-07T11:16:18.807Z,6.81
2018-02-07T11:18:46.222Z,6.86
2018-02-07T11:21:13.670Z,6.35
2018-02-07T11:23:41.063Z,6.41
2018-02-07T11:26:08.457Z,6.83
2018-02-07T11:28:35.962Z,6.57
2018-02-07T11:31:03.357Z,5.81
2018-02-07T11:33:30.854Z,5.72
2018-02-07T11:35:58.269Z,5.93
2018-02-07T11:38:26.378Z,5.79
2018-02-07T11:40:53.766Z,5.46
2018-02-07T11:43:21.534Z,5.31
2018-02-07T11:45:48.942Z,4.58
2018-02-07T11:48:16.409Z,4.47
2018-02-07T11:50:43.814Z,4.26
2018-02-07T11:53:11.201Z,4.19
2018-02-07T11:55:38.631Z,3.99
2018-02-07T11:58:06.013Z,4.07
2018-02-07T12:00:33.405Z,4.20
2018-02-07T12:03:00.841Z,4.31
2018-02-07T12:05:28.256Z,4.14
2018-02-07T12:07:55.642Z,3.76
2018-02-07T12:10:23.123Z,4.01
2018-02-07T12:12:50.515Z,3.86
2018-02-07T12:15:17.918Z,3.82
2018-02-07T12:17:45.373Z,4.09
2018-02-07T12:20:12.775Z,4.13
2018-02-07T12:22:40.157Z,4.05
2018-02-07T12:25:07.557Z,3.91
2018-02-07T12:27:34.943Z,3.98
2018-02-07T12:30:02.334Z,4.02
2018-02-07T12:32:29.732Z,4.17
2018-02-07T12:34:57.131Z,4.24
2018-02-07T12:37:24.621Z,3.88
2018-02-07T12:39:52.018Z,4.07
2018-02-07T12:42:19.409Z,3.96
2018-02-07T12:44:46.800Z,3.98
2018-02-07T12:47:14.181Z,4.42
2018-02-07T12:49:41.561Z,4.62
2018-02-07T12:52:09.054Z,4.57
2018-02-07T12:54:36.513Z,4.82
2018-02-07T12:57:03.970Z,4.64
2018-02-07T12:59:31.366Z,4.30
2018-02-07T13:01:58.762Z,4.73
2018-02-07T13:04:26.172Z,4.91
2018-02-07T13:06:53.559Z,4.64
2018-02-07T13:09:20.961Z,4.24
2018-02-07T13:11:48.346Z,4.48
2018-02-07T13:14:15.730Z,4.25
2018-02-07T13:16:43.213Z,4.28
2018-02-07T13:19:10.605Z,4.27
2018-02-07T13:21:38.000Z,4.72
2018-02-07T13:24:05.381Z,4.82
2018-02-07T13:26:32.773Z,5.05
2018-02-07T13:29:00.162Z,5.02
2018-02-07T13:31:27.583Z,4.74
2018-02-07T13:33:54.954Z,4.97
2018-02-07T13:36:22.375Z,4.85
2018-02-07T13:38:49.767Z,4.82
2018-02-07T13:41:17.182Z,4.59
2018-02-07T13:43:44.746Z,4.49
2018-02-07T13:46:12.274Z,4.16
2018-02-07T13:48:39.741Z,4.01
2018-02-07T13:51:07.140Z,4.31
2018-02-07T13:53:34.531Z,4.36
2018-02-07T13:56:01.926Z,4.26
2018-02-07T13:58:29.371Z,4.37
2018-02-07T14:00:56.771Z,4.11
2018-02-07T14:03:24.152Z,3.95
2018-02-07T14:05:51.538Z,3.88
2018-02-07T14:08:18.926Z,3.70
2018-02-07T14:10:46.318Z,3.67
2018-02-07T14:13:13.710Z,3.74
2018-02-07T14:15:41.111Z,3.68
2018-02-07T14:18:08.514Z,3.68
2018-02-07T14:20:35.969Z,3.62
2018-02-07T14:23:03.425Z,3.66
2018-02-07T14:25:30.830Z,3.62
2018-02-07T14:27:58.218Z,3.64
2018-02-07T14:30:25.611Z,3.66
2018-02-07T14:32:53.016Z,3.63
2018-02-07T14:35:20.412Z,3.51
2018-02-07T14:37:47.799Z,3.54
2018-02-07T14:40:15.178Z,3.66
2018-02-07T14:42:42.570Z,3.81
2018-02-07T14:45:09.954Z,3.58
2018-02-07T14:47:37.346Z,3.31
2018-02-07T14:50:04.729Z,3.14
2018-02-07T14:52:32.122Z,3.46
2018-02-07T14:54:59.505Z,3.50
2018-02-07T14:57:27.002Z,3.31
2018-02-07T14:59:54.386Z,3.31
2018-02-07T15:02:21.813Z,3.25
2018-02-07T15:04:49.202Z,3.11
2018-02-07T15:07:16.602Z,3.07
2018-02-07T15:09:43.996Z,3.15
2018-02-07T15:12:11.386Z,3.34
2018-02-07T15:14:38.794Z,3.24
2018-02-07T15:17:06.195Z,3.03
2018-02-07T15:19:33.586Z,3.10
2018-02-07T15:22:00.974Z,2.84
2018-02-07T15:24:28.366Z,2.77
2018-02-07T15:26:55.788Z,2.67
2018-02-07T15:29:23.146Z,2.53
2018-02-07T15:31:50.531Z,2.69
2018-02-07T15:34:17.960Z,2.56
2018-02-07T15:36:45.317Z,2.54
2018-02-07T15:39:12.712Z,2.46
2018-02-07T15:41:40.206Z,2.38
2018-02-07T15:44:07.594Z,2.22
2018-02-07T15:46:34.987Z,2.31
2018-02-07T15:49:02.375Z,2.17
2018-02-07T15:51:29.762Z,2.21
2018-02-07T15:53:57.186Z,2.22
2018-02-07T15:56:24.586Z,2.02
2018-02-07T15:58:51.974Z,1.78
2018-02-07T16:01:19.369Z,1.90
2018-02-07T16:03:46.759Z,1.92
2018-02-07T16:06:14.154Z,2.03
2018-02-07T16:08:41.546Z,1.93
2018-02-07T16:11:08.941Z,1.87
2018-02-07T16:13:36.329Z,1.94
2018-02-07T16:16:03.710Z,1.94
2018-02-07T16:18:31.103Z,1.96
2018-02-07T16:20:58.505Z,2.08
2018-02-07T16:23:25.889Z,2.30
2018-02-07T16:25:53.291Z,2.33
2018-02-07T16:28:20.683Z,2.28
2018-02-07T16:30:48.094Z,2.26
2018-02-07T16:33:15.488Z,2.23
2018-02-07T16:35:42.921Z,1.97
2018-02-07T16:38:10.377Z,1.91
2018-02-07T16:40:37.762Z,1.81
2018-02-07T16:43:05.162Z,1.66
2018-02-07T16:45:32.571Z,1.75
2018-02-07T16:47:59.953Z,1.76
2018-02-07T16:50:27.354Z,1.81
2018-02-07T16:52:54.805Z,1.86
2018-02-07T16:55:22.195Z,1.94
2018-02-07T16:57:49.613Z,1.87
2018-02-07T17:00:17.006Z,1.73
2018-02-07T17:02:44.402Z,1.55
2018-02-07T17:05:11.790Z,1.62
2018-02-07T17:07:39.242Z,1.54
2018-02-07T17:10:06.702Z,1.56
2018-02-07T17:12:34.110Z,1.39
2018-02-07T17:15:02.557Z,1.40
2018-02-07T17:17:30.182Z,1.44
2018-02-07T17:19:57.655Z,1.42
2018-02-07T17:22:25.106Z,1.37
2018-02-07T17:24:52.495Z,1.16
2018-02-07T17:27:19.899Z,1.23
2018-02-07T17:29:47.388Z,1.28
2018-02-07T17:32:14.832Z,1.24
2018-02-07T17:34:42.218Z,1.07
2018-02-07T17:37:09.613Z,1.12
2018-02-07T17:39:37.098Z,1.12
2018-02-07T17:42:04.497Z,1.04
2018-02-07T17:44:31.906Z,0.92
2018-02-07T17:46:59.365Z,0.82
2018-02-07T17:49:26.828Z,0.40
2018-02-07T17:51:54.279Z,0.39
2018-02-07T17:54:21.673Z,0.27
2018-02-07T17:56:49.083Z,0.32
2018-02-07T17:59:16.476Z,0.17
2018-02-07T18:01:43.883Z,-0.06
2018-02-07T18:04:11.351Z,-0.07
2018-02-07T18:06:38.782Z,-0.11
2018-02-07T18:09:06.172Z,-0.04
2018-02-07T18:11:33.581Z,-0.06
2018-02-07T18:14:00.987Z,-0.05
2018-02-07T18:16:28.378Z,-0.26
2018-02-07T18:18:55.802Z,-0.49
2018-02-07T18:21:23.257Z,-0.67
2018-02-07T18:23:50.688Z,-0.64
2018-02-07T18:26:18.068Z,-0.64
2018-02-07T18:28:45.545Z,-0.54
2018-02-07T18:31:12.962Z,-0.38
2018-02-07T18:33:40.362Z,-0.25
2018-02-07T18:36:07.765Z,-0.31
2018-02-07T18:38:35.175Z,-0.22
2018-02-07T18:41:02.608Z,-0.19
2018-02-07T18:43:30.030Z,-0.15
2018-02-07T18:45:57.422Z,-0.47
2018-02-07T18:48:24.882Z,-0.37
2018-02-07T18:50:52.318Z,-0.37
2018-02-07T18:53:19.734Z,-0.23
2018-02-07T18:55:47.130Z,-0.21
2018-02-07T18:58:14.531Z,-0.31
2018-02-07T19:00:41.937Z,-0.27
2018-02-07T19:03:09.338Z,-0.23
2018-02-07T19:05:36.742Z,-0.25
2018-02-07T19:08:04.163Z,-0.26
2018-02-07T19:10:31.562Z,-0.26
2018-02-07T19:12:59.047Z,-0.36
2018-02-07T19:15:26.442Z,-0.38
2018-02-07T19:17:53.838Z,-0.41
2018-02-07T19:20:21.232Z,-0.44
2018-02-07T19:22:48.639Z,-0.63
2018-02-07T19:25:16.032Z,-0.91
2018-02-07T19:27:43.437Z,-1.01
2018-02-07T19:30:10.949Z,-0.90
2018-02-07T19:32:38.409Z,-1.46
2018-02-07T19:35:06.453Z,-1.45
2018-02-07T19:37:33.859Z,-1.63
2018-02-07T19:40:01.264Z,-1.52
2018-02-07T19:42:28.665Z,-1.47
2018-02-07T19:44:56.058Z,-1.53
2018-02-07T19:47:23.539Z,-1.46
2018-02-07T19:49:50.944Z,-1.22
2018-02-07T19:52:19.051Z,-1.07
2018-02-07T19:54:46.427Z,-1.00
2018-02-07T19:57:13.826Z,-0.90
2018-02-07T19:59:41.218Z,-0.88
2018-02-07T20:02:08.625Z,-0.91
2018-02-07T20:04:36.017Z,-0.89
2018-02-07T20:07:03.424Z,-0.90
2018-02-07T20:09:30.983Z,-0.89
2018-02-07T20:11:58.375Z,-0.91
2018-02-07T20:14:25.775Z,-1.07
2018-02-07T20:16:53.174Z,-1.12
2018-02-07T20:19:21.247Z,-1.21
2018-02-07T20:21:48.643Z,-1.24
2018-02-07T20:24:16.678Z,-1.37
2018-02-07T20:26:44.178Z,-1.46
2018-02-07T20:29:11.578Z,-1.59
2018-02-07T20:31:38.963Z,-1.81
2018-02-07T20:34:06.366Z,-2.04
2018-02-07T20:36:34.429Z,-2.12
2018-02-07T20:39:01.818Z,-2.23
2018-02-07T20:41:29.303Z,-2.37
2018-02-07T20:43:56.734Z,-2.37
2018-02-07T20:46:24.163Z,-2.25
2018-02-07T20:48:51.561Z,-2.41
2018-02-07T20:51:18.955Z,-2.45
2018-02-07T20:53:46.354Z,-2.36
2018-02-07T20:56:13.862Z,-2.22
2018-02-07T20:58:42.164Z,-2.05
2018-02-07T21:01:09.564Z,-2.06
2018-02-07T21:03:36.961Z,-1.79
2018-02-07T21:06:04.363Z,-1.62
2018-02-07T21:08:31.764Z,-1.60
2018-02-07T21:10:59.167Z,-1.50
2018-02-07T21:13:26.562Z,-1.46
2018-02-07T21:15:54.014Z,-1.45
2018-02-07T21:18:21.468Z,-1.49
2018-02-07T21:20:48.940Z,-1.56
2018-02-07T21:23:16.674Z,-1.54
2018-02-07T21:25:44.294Z,-1.50
2018-02-07T21:28:11.693Z,-1.58
2018-02-07T21:30:39.195Z,-1.56
2018-02-07T21:33:06.650Z,-1.54
2018-02-07T21:35:34.052Z,-1.51
2018-02-07T21:38:01.449Z,-1.49
2018-02-07T21:40:28.830Z,-1.53
2018-02-07T21:42:56.234Z,-1.56
2018-02-07T21:45:23.634Z,-1.59
2018-02-07T21:47:51.026Z,-1.65
2018-02-07T21:50:18.465Z,-1.72
2018-02-07T21:52:45.870Z,-1.77
2018-02-07T21:55:13.303Z,-1.79
2018-02-07T21:57:40.704Z,-1.82
2018-02-07T22:00:08.114Z,-1.84
2018-02-07T22:02:35.506Z,-1.90
2018-02-07T22:05:02.963Z,-1.93
2018-02-07T22:07:30.432Z,-1.91
2018-02-07T22:09:57.834Z,-1.92
2018-02-07T22:12:25.345Z,-2.11
2018-02-07T22:14:52.837Z,-2.11
2018-02-07T22:17:20.226Z,-2.10
2018-02-07T22:19:47.634Z,-2.40
2018-02-07T22:22:15.059Z,-2.42
2018-02-07T22:24:42.502Z,-2.49
2018-02-07T22:27:09.904Z,-2.45
2018-02-07T22:29:37.301Z,-2.42
2018-02-07T22:32:04.780Z,-2.54
2018-02-07T22:34:32.179Z,-2.56
2018-02-07T22:36:59.586Z,-2.58
2018-02-07T22:39:27.036Z,-2.57
2018-02-07T22:41:54.441Z,-2.55
2018-02-07T22:44:21.851Z,-2.56
2018-02-07T22:46:49.257Z,-2.60
2018-02-07T22:49:16.648Z,-2.64
2018-02-07T22:51:44.043Z,-2.67
2018-02-07T22:54:11.446Z,-2.73
2018-02-07T22:56:38.925Z,-2.84
2018-02-07T22:59:06.382Z,-2.79
2018-02-07T23:01:33.786Z,-2.75
2018-02-07T23:04:01.296Z,-2.74
2018-02-07T23:06:28.718Z,-2.73
2018-02-07T23:08:56.218Z,-2.72
2018-02-07T23:11:23.609Z,-2.71
2018-02-07T23:13:51.134Z,-2.72
2018-02-07T23:16:18.531Z,-2.77
2018-02-07T23:18:46.031Z,-2.78
2018-02-07T23:21:13.421Z,-2.81
2018-02-07T23:23:40.826Z,-2.87
2018-02-07T23:26:08.241Z,-2.90
2018-02-07T23:28:35.905Z,-3.00
2018-02-07T23:31:03.393Z,-2.97
2018-02-07T23:33:30.884Z,-3.01
2018-02-07T23:35:58.335Z,-3.09
2018-02-07T23:38:25.734Z,-3.08
2018-02-07T23:40:53.125Z,-3.06
2018-02-07T23:43:20.526Z,-3.08
2018-02-07T23:45:47.946Z,-3.15
2018-02-07T23:48:15.358Z,-3.18
2018-02-07T23:50:42.765Z,-3.16
2018-02-07T23:53:10.257Z,-3.35
2018-02-07T23:55:37.649Z,-3.39
2018-02-07T23:58:05.055Z,-3.40
